Pinon Canyon, Colorado
Current Conditions -  °F | °C
As of 1:54 PM on Monday 24 Nov 2014 (Local Time) from KTAD Reporting Station
Scattered Clouds Scattered Clouds  
Wind Chill: 29°   Ceiling: Unl
Heat Index: 37°   Visibility: 10mi
Dew Point: 16°   Wind: 13mph
Humidity: 42%   Direction: 320°NW
Pressure: 30"   Gusts: NA
Location:  37.1661°N, 104.486°W
Report Text: KTAD 242054Z AUTO 32011KT 10SM SCT090 03/M09 A3000 RMK AO2 SLP177 T00281089 53005
Loading
Personal Weather Stations






























Interactive Weather Map New forecast layout! Learn more

10-Day Weather Forecast

Advertisements
Track Severe Weather on mobile